Aeroporto :
LOGIN :

Iscrizione | Disclaimer

   EN    FR    IT 

 










Sommario :    VFR   VFR Marginale   IFR   IFR Intensivo   IFR Molto Intensivo
Visibilità : 
Base nubi : 
>= 8 km
>= 3000ft
5 / 8 km
1000 / 3000 ft
1500m / 5 km
500 / 1000 ft
800 / 1500m
200 / 500 ft
< 800m
< 200 ft
Simboli :   Temporali  Nebbia  Neve Forte  Precipitazioni Forti  Vento > 20 kt
SIGMETs :   Varie  Temporali  Ghiacco  Turbolenza  Onda orograficha  Ceneri Vulcaniche






- Altitudine del aeroporto : 256 ft
- Codice IATA : CFR


LFRK - Caen

ULTIMO METAR :
  • 301900Z AUTO 27012KT 6000 FEW008 OVC110 09/08 Q1025 TEMPO BKN003 BECMG 4500 -RA

METARs OBSOLETI :
  • 301830Z AUTO 27012KT 6000 SCT008 BKN020 OVC110 09/08 Q1025 TEMPO BKN003 BECMG 4500 -RA
  • 301800Z AUTO 28010KT 7000 NSC 08/07 Q1025 TEMPO BKN003 BECMG 4500 -RA
  • 301730Z AUTO 27011KT 7000 NSC 08/07 Q1025 TEMPO BKN003 BECMG 4500 -RA
  • 301700Z AUTO 26012KT 7000 NSC 08/07 Q1025 TEMPO BKN003 BECMG 4500 -RA
  • 301630Z AUTO 26010KT 6000 FEW006 BKN110 OVC130 08/07 Q1025 TEMPO BKN003 BECMG 4500 -RA

TAF TAF LFRK
Valido dal 30 a 15 ore il 01 a 00 ore UTC


301400Z 3015/3024 25008KT 8000 BKN006
BECMG 3015/3017 SCT006
BECMG 3018/3020 4500 -RA
TEMPO 3018/3020 BKN003
Met : +33 2 31 26 68 11



MetMap, La meteo Aeronautica in un colpo d'occhio ! - Copyright ORBIFLY Dicembre 2007 - Disclaimer

ORBIFLY MET'MAP TEAM :

Programmazione e sviluppo : Alexandra Zaïnal
Concezione : Baudouin d'Aumeries
Aiuto per la programmazione : Marc-Olivier Méhu
Supporto tecnico e logistico : Manuel Goepfert
Aiuto per la traduzione : Arnaldo La Scala

Contatto : metmap@orbifly.com




FONTI E CREDITI :

   NOAA